Time;durP1;ratioP1;P1;durP2;ratioP2;P2;SDS_P1;SDS_P2;PMS_P1;PMS_P2;Temp;Humidity;BMP_temperature;BMP_pressure;BME280_temperature;BME280_humidity;BME280_pressure;Samples;Min_cycle;Max_cycle;Signal;HPM_P1;HPM_P2
2021/01/30 00:01:52;;;;;;;11.75;9.32;;;;;;;8.54;43.37;99122.34;4903156;28;97970;-71
2021/01/30 00:04:20;;;;;;;10.13;8.95;;;;;;;8.54;43.26;99127.59;4904237;28;97155;-72
2021/01/30 00:06:49;;;;;;;10.75;9.70;;;;;;;8.54;43.09;99127.59;4891998;28;97499;-75
2021/01/30 00:09:16;;;;;;;12.43;9.43;;;;;;;8.53;43.00;99131.03;4899900;28;98229;-74
2021/01/30 00:11:47;;;;;;;10.77;9.52;;;;;;;8.52;43.22;99134.47;4894793;28;98172;-74
2021/01/30 00:14:15;;;;;;;12.60;9.82;;;;;;;8.53;43.18;99133.63;4903774;28;97779;-76
2021/01/30 00:16:43;;;;;;;10.68;9.60;;;;;;;8.54;43.35;99124.97;4902327;28;97105;-74
2021/01/30 00:19:10;;;;;;;11.23;9.20;;;;;;;8.54;43.14;99135.44;4902676;28;97841;-74
2021/01/30 00:21:37;;;;;;;10.85;9.73;;;;;;;8.50;43.15;99144.00;4902096;28;97900;-74
2021/01/30 00:24:06;;;;;;;10.85;9.57;;;;;;;8.52;43.34;99139.72;4905416;28;97415;-74
2021/01/30 00:26:33;;;;;;;10.63;9.63;;;;;;;8.50;43.59;99133.53;4905465;28;97433;-73
2021/01/30 00:29:00;;;;;;;13.05;10.02;;;;;;;8.52;43.50;99142.34;4893985;28;99810;-74
2021/01/30 00:31:27;;;;;;;12.68;10.57;;;;;;;8.53;43.38;99147.63;4905755;28;98272;-73
2021/01/30 00:33:56;;;;;;;12.38;11.07;;;;;;;8.56;43.20;99154.69;4904192;28;97393;-74
2021/01/30 00:36:23;;;;;;;15.18;10.63;;;;;;;8.57;43.36;99159.97;4898508;28;97303;-74
2021/01/30 00:38:52;;;;;;;10.27;9.23;;;;;;;8.55;43.11;99156.41;4890687;28;97835;-73
2021/01/30 00:41:20;;;;;;;10.15;9.07;;;;;;;8.53;43.10;99160.69;4906400;28;98310;-75
2021/01/30 00:43:47;;;;;;;9.75;8.50;;;;;;;8.54;43.25;99166.84;4904054;28;97305;-74
2021/01/30 00:46:15;;;;;;;9.60;8.20;;;;;;;8.55;43.11;99160.75;4903953;28;97788;-74
2021/01/30 00:48:44;;;;;;;9.80;8.75;;;;;;;8.56;43.17;99159.94;4900904;28;97982;-73
2021/01/30 00:51:12;;;;;;;9.57;8.15;;;;;;;8.53;43.31;99163.31;4909909;28;98304;-73
2021/01/30 00:53:39;;;;;;;8.57;7.78;;;;;;;8.53;43.12;99168.56;4890291;28;97146;-73
2021/01/30 00:56:07;;;;;;;9.05;8.18;;;;;;;8.54;49.41;99185.16;4895122;28;99270;-74
2021/01/30 00:58:34;;;;;;;8.95;8.05;;;;;;;8.50;43.76;99188.50;4898375;28;97841;-73
2021/01/30 01:01:01;;;;;;;8.98;8.05;;;;;;;8.50;43.44;99185.88;4895201;28;98172;-74
2021/01/30 01:03:29;;;;;;;8.88;8.07;;;;;;;8.49;43.15;99192.81;4898124;28;97789;-74
2021/01/30 01:06:02;;;;;;;10.45;8.30;;;;;;;8.48;43.42;99198.00;4907274;28;97264;-73
2021/01/30 01:08:31;;;;;;;11.48;8.48;;;;;;;8.50;43.30;99198.94;4907954;28;99369;-73
2021/01/30 01:10:59;;;;;;;9.55;8.32;;;;;;;8.49;43.30;99202.38;4906539;28;98900;-73
2021/01/30 01:13:27;;;;;;;8.93;8.07;;;;;;;8.53;43.28;99204.28;4900170;28;97949;-73
2021/01/30 01:15:55;;;;;;;10.35;8.80;;;;;;;8.49;43.21;99200.66;4903734;28;97079;-74
2021/01/30 01:18:22;;;;;;;10.25;8.40;;;;;;;8.50;43.25;99201.56;4907452;28;98187;-74
2021/01/30 01:20:50;;;;;;;10.85;9.05;;;;;;;8.48;43.70;99205.84;4911894;28;100631;-74
2021/01/30 01:23:19;;;;;;;13.60;8.77;;;;;;;8.45;44.00;99211.00;4909652;28;97604;-73
2021/01/30 01:25:48;;;;;;;10.63;9.23;;;;;;;8.45;43.23;99222.31;4907896;28;97516;-75
2021/01/30 01:28:17;;;;;;;9.20;7.93;;;;;;;8.45;43.31;99229.31;4907907;28;100198;-74
2021/01/30 01:30:45;;;;;;;11.00;8.52;;;;;;;8.48;43.24;99226.78;4915789;28;98744;-74
2021/01/30 01:33:13;;;;;;;10.25;8.88;;;;;;;8.48;43.18;99243.38;4910486;28;96825;-73
2021/01/30 01:35:41;;;;;;;11.10;9.15;;;;;;;8.46;43.17;99250.28;4910917;28;98897;-73
2021/01/30 01:38:08;;;;;;;11.23;8.68;;;;;;;8.47;43.32;99256.38;4906673;28;100079;-75
2021/01/30 01:40:38;;;;;;;13.77;11.02;;;;;;;8.48;43.66;99259.09;4911884;28;101081;-75
2021/01/30 01:43:10;;;;;;;12.85;9.38;;;;;;;8.45;43.39;99260.69;4905535;28;97143;-75
2021/01/30 01:45:38;;;;;;;14.30;9.95;;;;;;;8.45;43.54;99268.53;4907845;28;98020;-74
2021/01/30 01:48:07;;;;;;;11.80;9.13;;;;;;;8.43;43.28;99280.69;4889196;28;100447;-75
2021/01/30 01:50:38;;;;;;;10.85;8.38;;;;;;;8.43;43.50;99291.16;4906258;28;101963;-73
2021/01/30 01:53:10;;;;;;;10.82;9.00;;;;;;;8.44;43.69;99298.16;4902277;28;97120;-75
2021/01/30 01:55:40;;;;;;;12.27;9.45;;;;;;;8.43;43.37;99294.63;4903137;28;97399;-73
2021/01/30 01:58:08;;;;;;;10.98;9.88;;;;;;;8.41;43.24;99300.66;4902702;28;99246;-74
2021/01/30 02:00:36;;;;;;;11.48;9.45;;;;;;;8.41;43.53;99309.38;4903733;28;97997;-73
2021/01/30 02:03:04;;;;;;;12.25;9.25;;;;;;;8.38;43.92;99321.44;4902965;28;97823;-73
2021/01/30 02:05:34;;;;;;;10.23;8.90;;;;;;;8.33;43.90;99323.00;4904790;28;97787;-74
2021/01/30 02:08:04;;;;;;;9.75;8.35;;;;;;;8.32;43.61;99339.53;4904355;28;102215;-75
2021/01/30 02:10:36;;;;;;;10.55;9.50;;;;;;;8.33;43.47;99336.09;4908832;28;98957;-75
2021/01/30 02:13:06;;;;;;;16.40;12.57;;;;;;;8.38;43.72;99332.81;4900897;28;97021;-73
2021/01/30 02:15:34;;;;;;;13.50;10.65;;;;;;;8.35;43.65;99326.56;4904829;28;98024;-73
2021/01/30 02:18:09;;;;;;;13.80;9.38;;;;;;;8.37;43.79;99345.84;4903261;28;97783;-74
2021/01/30 02:20:59;;;;;;;10.15;9.15;;;;;;;8.41;43.52;99346.00;4902743;28;98151;-72
2021/01/30 02:24:06;;;;;;;11.98;9.82;;;;;;;8.39;43.52;99347.69;4903481;28;98196;-75
2021/01/30 02:26:59;;;;;;;15.93;12.82;;;;;;;8.49;43.18;99365.50;4884511;28;97887;-74
2021/01/30 02:29:48;;;;;;;11.27;9.18;;;;;;;8.43;43.70;99391.44;4898996;28;99159;-74
2021/01/30 02:32:26;;;;;;;11.75;9.73;;;;;;;8.42;43.21;99407.06;4905842;28;98085;-75
2021/01/30 02:35:14;;;;;;;12.95;9.40;;;;;;;8.37;43.50;99411.25;4904529;28;98046;-74
2021/01/30 02:37:47;;;;;;;12.15;9.15;;;;;;;8.37;44.36;99411.25;4903178;28;96842;-74
2021/01/30 02:40:17;;;;;;;11.35;8.95;;;;;;;8.35;43.83;99423.38;4903033;28;98947;-72
2021/01/30 02:42:50;;;;;;;11.82;9.10;;;;;;;8.29;43.59;99428.34;4890870;28;100887;-73
2021/01/30 02:45:19;;;;;;;9.63;8.70;;;;;;;8.27;45.31;99425.66;4903676;28;97807;-73
2021/01/30 02:47:50;;;;;;;10.27;8.32;;;;;;;8.27;45.08;99437.84;4902908;28;97785;-74
2021/01/30 02:50:25;;;;;;;9.23;8.25;;;;;;;8.23;45.51;99435.09;4904722;28;99459;-74
2021/01/30 02:52:57;;;;;;;10.05;8.35;;;;;;;8.20;44.71;99453.28;4902617;28;98164;-76
2021/01/30 02:55:25;;;;;;;9.55;8.13;;;;;;;8.20;44.64;99449.75;4903510;28;97675;-75
2021/01/30 02:57:54;;;;;;;9.23;8.32;;;;;;;8.19;44.12;99451.47;4902863;28;97061;-76
2021/01/30 03:00:25;;;;;;;10.23;9.13;;;;;;;8.17;44.38;99444.41;4904079;28;98844;-75
2021/01/30 03:02:53;;;;;;;11.00;9.90;;;;;;;8.13;44.64;99453.88;4904445;28;98318;-74
2021/01/30 03:05:21;;;;;;;10.70;9.00;;;;;;;8.08;44.90;99460.59;4901864;28;97683;-74
2021/01/30 03:08:15;;;;;;;12.60;9.68;;;;;;;8.01;45.87;99455.94;4904114;28;96796;-73
2021/01/30 03:10:48;;;;;;;12.05;10.07;;;;;;;7.99;44.87;99465.44;4902640;28;98705;-74
2021/01/30 03:13:19;;;;;;;12.30;9.50;;;;;;;7.98;44.65;99468.91;4904770;28;97808;-74
2021/01/30 03:15:50;;;;;;;11.52;8.77;;;;;;;7.99;44.44;99472.44;4903847;28;97628;-73
2021/01/30 03:18:19;;;;;;;9.98;8.65;;;;;;;8.00;44.67;99471.59;4903725;28;97796;-73
2021/01/30 03:20:47;;;;;;;9.65;8.40;;;;;;;8.00;44.40;99477.72;4903642;28;97964;-75
2021/01/30 03:23:17;;;;;;;8.60;7.82;;;;;;;7.97;44.78;99482.78;4888869;28;99276;-74
2021/01/30 03:25:45;;;;;;;9.95;8.70;;;;;;;8.01;44.70;99489.94;4910219;28;97139;-74
2021/01/30 03:28:13;;;;;;;10.35;8.75;;;;;;;8.03;44.48;99506.59;4900161;28;96950;-75
2021/01/30 03:30:40;;;;;;;9.73;8.75;;;;;;;8.05;44.24;99506.66;4902817;28;97982;-71
2021/01/30 03:33:08;;;;;;;8.52;7.65;;;;;;;8.02;44.23;99517.00;4895692;28;99068;-75
2021/01/30 03:35:36;;;;;;;9.55;8.27;;;;;;;8.03;44.11;99518.75;4903633;28;97291;-75
2021/01/30 03:38:03;;;;;;;12.52;11.20;;;;;;;8.07;44.22;99526.81;4901054;28;97302;-75
2021/01/30 03:40:32;;;;;;;11.25;8.95;;;;;;;8.06;44.18;99527.63;4902975;28;99069;-75
2021/01/30 03:43:02;;;;;;;13.07;9.27;;;;;;;8.03;44.46;99518.75;4902291;28;98183;-76
2021/01/30 03:45:30;;;;;;;11.55;8.18;;;;;;;8.03;44.47;99527.50;4901430;28;97253;-74
2021/01/30 03:47:59;;;;;;;9.18;8.27;;;;;;;8.05;44.03;99540.66;4888764;28;98023;-73
2021/01/30 03:50:26;;;;;;;9.30;8.45;;;;;;;8.02;44.07;99541.44;4902848;28;98018;-76
2021/01/30 03:52:54;;;;;;;9.63;8.55;;;;;;;8.03;43.99;99548.44;4902853;28;97972;-75
2021/01/30 03:55:22;;;;;;;8.95;8.07;;;;;;;8.05;43.94;99548.50;4905527;28;97268;-75
2021/01/30 03:57:51;;;;;;;9.43;8.10;;;;;;;8.05;43.64;99549.41;4906222;28;97290;-74
2021/01/30 04:00:21;;;;;;;11.15;9.57;;;;;;;7.99;44.01;99556.97;4907375;28;99021;-74
2021/01/30 04:03:06;;;;;;;10.35;9.38;;;;;;;7.98;44.11;99565.66;4904367;28;97170;-75
2021/01/30 04:05:34;;;;;;;10.80;8.82;;;;;;;7.99;44.14;99567.41;4904568;28;96840;-74
2021/01/30 04:08:02;;;;;;;10.27;8.45;;;;;;;7.94;45.41;99561.09;4907018;28;97432;-76
2021/01/30 04:10:31;;;;;;;10.23;9.10;;;;;;;7.96;45.10;99569.00;4903745;28;97819;-75
2021/01/30 04:13:02;;;;;;;12.32;10.00;;;;;;;7.86;44.48;99572.06;4906328;28;98964;-75
2021/01/30 04:15:31;;;;;;;12.90;10.05;;;;;;;7.86;44.07;99578.19;4905234;28;97806;-74
2021/01/30 04:17:59;;;;;;;11.32;9.50;;;;;;;7.83;44.15;99580.66;4907406;28;97843;-75
2021/01/30 04:20:27;;;;;;;13.32;10.18;;;;;;;7.82;43.93;99583.22;4905703;28;99065;-75
2021/01/30 04:22:55;;;;;;;13.77;10.82;;;;;;;7.84;44.15;99585.06;4908023;28;99272;-76
2021/01/30 04:25:24;;;;;;;13.40;10.48;;;;;;;7.88;45.25;99593.94;4906516;28;97452;-74
2021/01/30 04:27:52;;;;;;;12.98;10.65;;;;;;;7.87;44.49;99593.03;4907643;28;97498;-76
2021/01/30 04:30:23;;;;;;;15.52;10.68;;;;;;;7.80;44.22;99590.97;4911691;28;97869;-75
2021/01/30 04:32:51;;;;;;;12.82;10.07;;;;;;;7.77;44.35;99589.97;4910385;28;99099;-76
2021/01/30 04:35:20;;;;;;;14.63;10.20;;;;;;;7.74;44.01;99595.03;4907137;28;97628;-74
2021/01/30 04:37:47;;;;;;;16.38;10.90;;;;;;;7.71;44.25;99605.34;4909955;28;96994;-75
2021/01/30 04:40:18;;;;;;;14.07;11.27;;;;;;;7.66;44.13;99607.78;4907462;28;98118;-74
2021/01/30 04:42:50;;;;;;;15.48;11.00;;;;;;;7.58;44.85;99603.00;4907820;28;98550;-75
2021/01/30 04:45:28;;;;;;;21.27;12.38;;;;;;;7.54;44.99;99616.75;4906390;28;97140;-75
2021/01/30 04:48:02;;;;;;;19.50;12.15;;;;;;;7.52;44.35;99621.91;4899933;28;97285;-74
2021/01/30 04:50:34;;;;;;;16.52;12.30;;;;;;;7.54;44.32;99624.59;4902378;28;99426;-74
2021/01/30 04:53:05;;;;;;;15.85;12.20;;;;;;;7.55;44.56;99632.53;4905916;28;97885;-73
2021/01/30 04:55:40;;;;;;;17.52;11.70;;;;;;;7.58;44.21;99643.09;4905669;28;96735;-74
2021/01/30 04:58:14;;;;;;;18.95;12.15;;;;;;;7.60;44.53;99654.53;4905122;28;97603;-74
2021/01/30 05:01:01;;;;;;;29.75;17.08;;;;;;;7.53;44.52;99657.69;4905224;28;97849;-73
2021/01/30 05:03:48;;;;;;;21.92;14.05;;;;;;;7.52;44.52;99668.06;4908570;28;98995;-73
2021/01/30 05:06:18;;;;;;;16.83;12.00;;;;;;;7.43;44.57;99658.06;4890512;28;96855;-72
2021/01/30 05:08:55;;;;;;;18.38;12.18;;;;;;;7.45;44.31;99665.94;4902459;28;97132;-74
2021/01/30 05:11:24;;;;;;;14.48;10.45;;;;;;;7.45;44.32;99673.78;4905135;28;98063;-74
2021/01/30 05:13:53;;;;;;;14.23;10.10;;;;;;;7.47;44.28;99672.16;4903875;28;97802;-73
2021/01/30 05:16:25;;;;;;;16.30;12.30;;;;;;;7.45;45.38;99672.09;4888469;28;96880;-73
2021/01/30 05:18:57;;;;;;;33.22;16.67;;;;;;;7.40;44.59;99673.59;4907130;28;97378;-73
2021/01/30 05:21:37;;;;;;;26.23;14.95;;;;;;;7.43;44.73;99675.44;4906715;28;98978;-74
2021/01/30 05:24:05;;;;;;;15.02;10.27;;;;;;;7.44;44.25;99679.84;4905098;28;97481;-75
2021/01/30 05:26:42;;;;;;;15.63;10.55;;;;;;;7.43;44.88;99684.16;4905051;28;97352;-75
2021/01/30 05:29:12;;;;;;;14.73;10.95;;;;;;;7.40;44.42;99678.81;4904552;28;97167;-74
2021/01/30 05:31:48;;;;;;;15.68;9.80;;;;;;;7.37;44.36;99690.84;4907425;28;100221;-73
2021/01/30 05:34:19;;;;;;;14.63;10.32;;;;;;;7.38;44.52;99697.84;4905116;28;99127;-74
2021/01/30 05:36:48;;;;;;;17.08;10.32;;;;;;;7.36;44.76;99703.00;4904045;28;98048;-72
2021/01/30 05:39:40;;;;;;;18.05;10.15;;;;;;;7.34;45.01;99703.72;4905602;28;97574;-73
2021/01/30 05:42:14;;;;;;;17.45;11.90;;;;;;;7.36;44.68;99700.38;4902825;28;99241;-74
2021/01/30 05:44:44;;;;;;;17.63;11.75;;;;;;;7.34;44.35;99708.94;4900846;28;99987;-74
2021/01/30 05:47:15;;;;;;;16.13;11.50;;;;;;;7.39;44.34;99710.09;4903395;28;97298;-73
2021/01/30 05:49:53;;;;;;;20.88;12.00;;;;;;;7.36;44.38;99715.16;4902179;28;97593;-73
2021/01/30 05:52:39;;;;;;;17.33;11.20;;;;;;;7.35;44.32;99718.59;4903024;28;98086;-74
2021/01/30 05:55:22;;;;;;;13.73;10.80;;;;;;;7.39;44.55;99723.16;4904602;28;98025;-73
2021/01/30 05:57:49;;;;;;;14.30;10.82;;;;;;;7.38;44.33;99723.97;4899761;28;97803;-73
2021/01/30 06:00:18;;;;;;;13.05;10.85;;;;;;;7.37;44.65;99730.91;4904446;28;97521;-73
2021/01/30 06:03:01;;;;;;;14.18;9.88;;;;;;;7.32;44.28;99731.53;4902856;28;98395;-73
2021/01/30 06:05:33;;;;;;;14.85;11.13;;;;;;;7.28;44.41;99743.50;4904136;28;98897;-73
2021/01/30 06:08:14;;;;;;;12.27;9.95;;;;;;;7.27;44.44;99749.56;4903737;28;97292;-74
2021/01/30 06:10:42;;;;;;;13.85;10.48;;;;;;;7.27;44.09;99753.88;4903608;28;96812;-73
2021/01/30 06:13:20;;;;;;;15.27;11.13;;;;;;;7.26;44.22;99758.22;4892405;28;98208;-74
2021/01/30 06:15:48;;;;;;;16.77;10.95;;;;;;;7.30;44.08;99754.91;4902878;28;97827;-74
2021/01/30 06:18:18;;;;;;;15.77;10.25;;;;;;;7.27;44.57;99756.50;4903577;28;97903;-73
2021/01/30 06:20:56;;;;;;;15.18;10.73;;;;;;;7.31;44.18;99761.06;4903805;28;97222;-74
2021/01/30 06:23:24;;;;;;;14.70;11.13;;;;;;;7.34;44.51;99769.94;4903567;28;97975;-74
2021/01/30 06:25:53;;;;;;;15.45;10.52;;;;;;;7.35;44.01;99771.75;4902188;28;98101;-73
2021/01/30 06:28:23;;;;;;;13.68;10.05;;;;;;;7.36;44.20;99786.59;4901975;28;97394;-72
2021/01/30 06:30:51;;;;;;;16.13;11.68;;;;;;;7.40;44.47;99788.53;4906273;28;97523;-74
2021/01/30 06:33:25;;;;;;;14.13;10.82;;;;;;;7.42;44.06;99786.88;4903661;28;98941;-73
2021/01/30 06:35:55;;;;;;;13.77;10.02;;;;;;;7.43;43.90;99795.59;4902933;28;97837;-74
2021/01/30 06:38:30;;;;;;;14.32;10.85;;;;;;;7.45;43.80;99804.41;4904827;28;97348;-74
2021/01/30 06:40:59;;;;;;;13.05;10.07;;;;;;;7.43;44.07;99809.56;4902726;28;97857;-73
2021/01/30 06:43:30;;;;;;;16.92;11.40;;;;;;;7.44;43.90;99816.59;4903190;28;98948;-74
2021/01/30 06:46:19;;;;;;;20.35;12.68;;;;;;;7.44;44.38;99827.06;4904718;28;97244;-73
2021/01/30 06:48:48;;;;;;;17.52;11.07;;;;;;;7.47;44.24;99823.69;4902632;28;97220;-74
2021/01/30 06:51:30;;;;;;;21.83;14.97;;;;;;;7.55;43.92;99825.88;4901080;28;97363;-73
2021/01/30 06:54:22;;;;;;;16.02;11.45;;;;;;;7.54;44.39;99834.50;4901975;28;98992;-73
2021/01/30 06:57:00;;;;;;;15.20;11.05;;;;;;;7.54;44.14;99842.34;4902772;28;99887;-73
2021/01/30 06:59:29;;;;;;;15.27;10.68;;;;;;;7.51;44.59;99843.91;4905008;28;96789;-75
2021/01/30 07:01:57;;;;;;;22.40;13.65;;;;;;;7.49;44.38;99851.69;4892402;28;97840;-72
2021/01/30 07:05:09;;;;;;;25.67;17.20;;;;;;;7.56;44.53;99848.56;4893341;28;98849;-73
2021/01/30 07:07:42;;;;;;;18.30;12.25;;;;;;;7.51;44.58;99843.91;4891338;28;99349;-74
2021/01/30 07:10:19;;;;;;;19.13;11.82;;;;;;;7.53;44.62;99851.03;4892525;28;98292;-75
2021/01/30 07:13:00;;;;;;;16.80;10.95;;;;;;;7.56;44.59;99852.88;4905176;28;96909;-73
2021/01/30 07:15:28;;;;;;;15.27;10.65;;;;;;;7.58;44.45;99854.75;4904866;28;98168;-73
2021/01/30 07:18:15;;;;;;;17.00;11.30;;;;;;;7.63;44.67;99853.25;4901963;28;98806;-74
2021/01/30 07:20:53;;;;;;;28.58;15.60;;;;;;;7.70;44.17;99859.69;4903968;28;97496;-73
2021/01/30 07:23:25;;;;;;;19.08;12.15;;;;;;;7.73;44.38;99857.22;4903296;28;97914;-73
2021/01/30 07:25:58;;;;;;;17.50;11.35;;;;;;;7.76;43.92;99870.44;4900448;28;97876;-74
2021/01/30 07:28:29;;;;;;;16.45;11.43;;;;;;;7.72;44.37;99866.78;4902460;28;98686;-74
2021/01/30 07:31:00;;;;;;;18.15;11.68;;;;;;;7.68;44.33;99870.06;4904773;28;96995;-74
2021/01/30 07:33:31;;;;;;;14.65;11.32;;;;;;;7.69;44.23;99865.72;4887673;28;98265;-74
2021/01/30 07:36:03;;;;;;;13.77;10.90;;;;;;;7.63;44.01;99868.94;4904555;28;99292;-72
2021/01/30 07:38:37;;;;;;;14.70;11.07;;;;;;;7.58;44.59;99873.03;4913832;28;98087;-73
2021/01/30 07:41:08;;;;;;;16.70;10.57;;;;;;;7.59;44.47;99871.34;4885056;28;97629;-74
2021/01/30 07:43:39;;;;;;;18.23;11.30;;;;;;;7.53;44.26;99871.94;4902973;28;97025;-73
2021/01/30 07:46:11;;;;;;;18.80;13.05;;;;;;;7.53;44.35;99874.53;4901362;28;97932;-74
2021/01/30 07:48:43;;;;;;;20.60;12.10;;;;;;;7.59;44.57;99884.41;4902624;28;98157;-73
2021/01/30 07:51:12;;;;;;;20.58;12.40;;;;;;;7.60;44.41;99886.19;4901661;28;96892;-74
2021/01/30 07:53:41;;;;;;;18.27;11.52;;;;;;;7.65;43.93;99879.47;4902574;28;97866;-75
2021/01/30 07:56:18;;;;;;;15.30;11.38;;;;;;;7.63;44.75;99886.31;4904568;28;98015;-74
2021/01/30 07:58:58;;;;;;;16.75;11.70;;;;;;;7.62;44.39;99895.00;4901171;28;98257;-73
2021/01/30 08:01:36;;;;;;;15.73;10.90;;;;;;;7.59;44.70;99889.63;4906984;28;98080;-72
2021/01/30 08:04:17;;;;;;;16.60;11.95;;;;;;;7.62;44.68;99893.28;4903454;28;97610;-72
2021/01/30 08:06:56;;;;;;;16.45;10.85;;;;;;;7.65;44.46;99906.50;4901977;28;97851;-73
2021/01/30 08:09:30;;;;;;;45.47;20.90;;;;;;;7.68;44.57;99900.53;4902215;28;97750;-73
2021/01/30 08:12:04;;;;;;;25.58;14.88;;;;;;;7.75;44.45;99907.88;4907077;28;96951;-75
2021/01/30 08:14:41;;;;;;;15.23;11.65;;;;;;;7.84;44.13;99904.00;4905519;28;97502;-76
2021/01/30 08:17:22;;;;;;;18.15;11.80;;;;;;;7.89;44.20;99907.72;4902011;28;98041;-76
2021/01/30 08:19:53;;;;;;;19.67;11.82;;;;;;;7.92;43.89;99904.34;4897850;28;98020;-77
2021/01/30 08:22:24;;;;;;;15.35;11.23;;;;;;;7.94;44.04;99905.31;4907091;28;97847;-76
2021/01/30 08:24:55;;;;;;;14.68;11.15;;;;;;;7.98;44.16;99908.19;4903249;28;98087;-76
2021/01/30 08:27:26;;;;;;;13.93;10.50;;;;;;;8.04;43.96;99913.72;4887648;28;98081;-77
2021/01/30 08:29:59;;;;;;;17.08;11.30;;;;;;;8.08;43.75;99907.78;4912436;28;98189;-77
2021/01/30 08:32:33;;;;;;;36.25;20.15;;;;;;;8.17;43.79;99916.06;4907839;28;99332;-77
2021/01/30 08:35:49;;;;;;;16.55;11.90;;;;;;;8.20;43.87;99908.41;4904582;28;96974;-76
2021/01/30 08:38:34;;;;;;;16.02;11.13;;;;;;;8.24;43.91;99909.47;4902583;28;98161;-78
2021/01/30 08:41:12;;;;;;;15.00;11.23;;;;;;;8.33;43.66;99907.28;4893682;28;97908;-78
2021/01/30 08:43:42;;;;;;;16.17;10.52;;;;;;;8.41;43.57;99912.91;4912233;28;97047;-77
2021/01/30 08:46:24;;;;;;;15.82;11.02;;;;;;;8.48;43.37;99915.88;4893889;28;97231;-77
2021/01/30 08:49:01;;;;;;;20.60;14.27;;;;;;;8.53;43.84;99913.47;4905751;28;98465;-78
2021/01/30 08:51:29;;;;;;;15.15;10.60;;;;;;;8.54;43.62;99918.75;4905871;28;98251;-77
2021/01/30 08:53:57;;;;;;;15.25;10.05;;;;;;;8.55;43.46;99925.81;4889006;28;97671;-77
2021/01/30 08:56:47;;;;;;;17.13;11.32;;;;;;;8.56;43.64;99916.25;4896857;28;97797;-77
2021/01/30 08:59:44;;;;;;;14.95;10.77;;;;;;;8.58;43.73;99919.81;4909698;28;97777;-77
2021/01/30 09:02:49;;;;;;;14.52;10.25;;;;;;;8.54;43.66;99923.13;4905973;28;99386;-78
2021/01/30 09:05:39;;;;;;;13.88;9.75;;;;;;;8.53;43.43;99913.47;4908152;28;97897;-76
2021/01/30 09:08:42;;;;;;;13.63;10.52;;;;;;;8.56;43.88;99921.47;4905005;28;98244;-77
2021/01/30 09:11:35;;;;;;;13.57;9.60;;;;;;;8.61;43.36;99925.22;4905374;28;98124;-77
2021/01/30 09:14:36;;;;;;;13.98;9.75;;;;;;;8.62;43.38;99940.06;4910154;28;97832;-76
2021/01/30 09:17:38;;;;;;;16.25;10.52;;;;;;;8.61;43.30;99940.91;4903396;28;97953;-76
2021/01/30 09:20:15;;;;;;;14.55;10.82;;;;;;;8.63;43.37;99931.41;4905670;28;97674;-75
2021/01/30 09:22:52;;;;;;;14.52;10.68;;;;;;;8.66;43.33;99934.16;4907705;28;99828;-75
2021/01/30 09:25:24;;;;;;;15.40;10.50;;;;;;;8.69;43.25;99944.75;4892414;28;98139;-75
2021/01/30 09:27:57;;;;;;;23.08;14.05;;;;;;;8.75;43.35;99947.69;4890092;28;98725;-76
2021/01/30 09:30:35;;;;;;;15.80;10.85;;;;;;;8.77;42.96;99944.31;4907623;28;98207;-75
2021/01/30 09:33:09;;;;;;;16.02;10.80;;;;;;;8.85;43.25;99955.16;4905096;28;99159;-75
2021/01/30 09:35:39;;;;;;;14.98;10.38;;;;;;;8.88;43.15;99957.91;4904023;28;102439;-76
2021/01/30 09:38:25;;;;;;;13.10;9.23;;;;;;;8.91;43.25;99958.94;4906767;28;96882;-76
2021/01/30 09:41:09;;;;;;;16.52;10.32;;;;;;;8.93;43.13;99970.38;4905666;28;97015;-75
2021/01/30 09:43:36;;;;;;;33.33;17.08;;;;;;;8.96;43.01;99973.13;4906462;28;98293;-76
2021/01/30 09:46:07;;;;;;;19.88;12.85;;;;;;;9.00;42.84;99980.31;4902281;28;99328;-76
2021/01/30 09:48:35;;;;;;;15.18;10.68;;;;;;;8.95;43.06;99975.69;4906489;28;98156;-76
2021/01/30 09:51:05;;;;;;;18.00;11.57;;;;;;;8.95;43.28;99973.06;4903806;28;98016;-75
2021/01/30 09:53:37;;;;;;;16.33;11.18;;;;;;;8.97;42.86;99977.56;4907823;28;98914;-76
2021/01/30 09:56:07;;;;;;;28.75;18.13;;;;;;;9.01;42.74;99979.47;4901022;28;97605;-77
2021/01/30 09:58:35;;;;;;;16.58;13.27;;;;;;;9.06;42.69;99971.84;4898573;28;97481;-76
2021/01/30 10:01:07;;;;;;;16.60;11.18;;;;;;;9.11;42.81;99965.97;4909793;28;96988;-77
2021/01/30 10:03:37;;;;;;;14.07;9.63;;;;;;;9.18;42.95;99973.28;4892413;28;98840;-76
2021/01/30 10:06:16;;;;;;;12.23;9.70;;;;;;;9.21;42.97;99976.03;4901745;28;97847;-75
2021/01/30 10:08:49;;;;;;;14.50;9.43;;;;;;;9.26;42.32;99967.50;4891615;28;97827;-75
2021/01/30 10:11:23;;;;;;;14.02;10.27;;;;;;;9.28;42.56;99969.38;4901049;28;97607;-75
2021/01/30 10:13:57;;;;;;;10.45;8.88;;;;;;;9.31;42.47;99963.34;4899145;28;98046;-74
2021/01/30 10:16:27;;;;;;;9.40;7.68;;;;;;;9.34;43.02;99960.88;4904256;28;98040;-75
2021/01/30 10:18:59;;;;;;;9.38;8.40;;;;;;;9.41;42.31;99962.94;4906605;28;96816;-75
2021/01/30 10:21:31;;;;;;;9.88;8.27;;;;;;;9.45;42.45;99959.66;4908204;28;99325;-76
2021/01/30 10:24:10;;;;;;;13.45;7.80;;;;;;;9.46;42.44;99961.41;4903803;28;99160;-76
2021/01/30 10:26:37;;;;;;;8.35;7.40;;;;;;;9.50;42.17;99960.72;4904423;28;97798;-76
2021/01/30 10:29:07;;;;;;;8.05;7.07;;;;;;;9.51;42.54;99966.03;4903165;28;97581;-75
2021/01/30 10:31:54;;;;;;;16.48;11.05;;;;;;;9.54;42.74;99971.44;4891681;28;97474;-75
2021/01/30 10:34:28;;;;;;;15.05;10.68;;;;;;;9.56;42.44;99969.75;4904179;28;98929;-75
2021/01/30 10:37:01;;;;;;;20.73;12.85;;;;;;;9.58;42.47;99972.47;4913811;28;98823;-75
2021/01/30 10:39:31;;;;;;;11.02;8.30;;;;;;;9.58;41.91;99965.47;4904226;28;97812;-76
2021/01/30 10:42:04;;;;;;;10.35;7.60;;;;;;;9.61;41.89;99963.00;4908734;28;97503;-74
2021/01/30 10:44:32;;;;;;;8.18;7.38;;;;;;;9.63;42.22;99965.69;4906122;28;98905;-75
2021/01/30 10:47:02;;;;;;;8.55;7.68;;;;;;;9.66;41.96;99961.47;4902539;28;98266;-75
2021/01/30 10:49:31;;;;;;;8.18;7.38;;;;;;;9.61;42.43;99957.75;4900574;28;98078;-75
2021/01/30 10:52:06;;;;;;;23.65;13.15;;;;;;;9.65;42.15;99966.66;4906788;28;96831;-75
2021/01/30 10:54:37;;;;;;;37.97;21.58;;;;;;;9.68;42.61;99969.41;4892475;28;98018;-75
2021/01/30 10:57:11;;;;;;;16.27;11.82;;;;;;;9.74;41.93;99959.19;4910353;28;97767;-75
2021/01/30 10:59:48;;;;;;;10.25;8.23;;;;;;;9.76;42.28;99963.63;4916734;28;97930;-75
2021/01/30 11:02:25;;;;;;;10.35;8.95;;;;;;;9.77;42.19;99959.31;4897170;28;97367;-75
2021/01/30 11:05:01;;;;;;;9.45;8.50;;;;;;;9.81;42.42;99964.75;4898254;28;100886;-76
2021/01/30 11:07:38;;;;;;;10.60;8.95;;;;;;;9.83;42.08;99964.81;4907635;28;99702;-74
2021/01/30 11:10:08;;;;;;;13.20;9.93;;;;;;;9.80;42.30;99964.66;4886054;28;97217;-75
2021/01/30 11:12:35;;;;;;;10.98;8.85;;;;;;;9.81;42.27;99975.25;4902504;28;97279;-75
2021/01/30 11:15:14;;;;;;;10.15;8.00;;;;;;;9.81;42.37;99967.38;4905941;28;98349;-76
2021/01/30 11:17:43;;;;;;;8.95;7.60;;;;;;;9.84;42.88;99971.84;4902502;28;100322;-77
2021/01/30 11:20:11;;;;;;;8.48;7.63;;;;;;;9.81;42.11;99972.63;4906158;28;96895;-77
2021/01/30 11:22:49;;;;;;;11.45;8.32;;;;;;;9.82;42.12;99965.63;4900313;28;97344;-75
2021/01/30 11:25:17;;;;;;;10.15;8.38;;;;;;;9.80;42.25;99960.31;4903090;28;98264;-76
2021/01/30 11:27:46;;;;;;;9.75;8.07;;;;;;;9.82;42.30;99963.91;4903639;28;98065;-76
2021/01/30 11:30:19;;;;;;;13.88;9.60;;;;;;;9.83;42.14;99964.81;4903307;28;97322;-76
2021/01/30 11:33:02;;;;;;;9.98;8.88;;;;;;;9.85;41.95;99965.78;4904921;28;97178;-76
2021/01/30 11:35:33;;;;;;;14.07;9.50;;;;;;;9.88;41.99;99968.53;4903503;28;98056;-75
2021/01/30 11:38:05;;;;;;;10.75;9.25;;;;;;;9.90;42.46;99967.78;4887758;28;100646;-75
2021/01/30 11:40:33;;;;;;;10.07;8.70;;;;;;;9.92;42.31;99965.22;4904217;28;97386;-75
2021/01/30 11:43:01;;;;;;;11.85;9.57;;;;;;;9.93;42.01;99965.25;4890308;28;98318;-75
2021/01/30 11:45:29;;;;;;;11.20;9.30;;;;;;;9.90;41.78;99962.53;4905716;28;99179;-76
2021/01/30 11:48:16;;;;;;;12.23;8.77;;;;;;;9.88;41.71;99953.69;4907429;28;97826;-76
2021/01/30 11:50:45;;;;;;;9.13;8.02;;;;;;;9.92;41.99;99959.97;4904341;28;97024;-76
2021/01/30 11:53:14;;;;;;;51.03;24.15;;;;;;;9.96;42.31;99947.03;4904196;28;97601;-76
2021/01/30 11:55:42;;;;;;;20.42;12.57;;;;;;;10.00;42.44;99953.28;4903754;28;98017;-74
2021/01/30 11:58:10;;;;;;;9.80;8.70;;;;;;;10.01;41.70;99942.88;4891753;28;97985;-74